createdAt,value
2023-04-27T00:00:29.771Z,2.45
2023-04-27T00:03:07.285Z,3.13
2023-04-27T00:05:41.896Z,2.40
2023-04-27T00:08:16.109Z,2.53
2023-04-27T00:10:50.241Z,2.75
2023-04-27T00:13:24.733Z,4.45
2023-04-27T00:15:58.873Z,3.05
2023-04-27T00:18:34.377Z,1.48
2023-04-27T00:21:09.913Z,3.25
2023-04-27T00:23:44.293Z,4.22
2023-04-27T00:26:18.487Z,2.15
2023-04-27T00:28:52.840Z,1.50
2023-04-27T00:31:27.048Z,2.38
2023-04-27T00:34:01.271Z,1.83
2023-04-27T00:36:38.170Z,3.70
2023-04-27T00:39:12.519Z,4.03
2023-04-27T00:41:46.898Z,4.22
2023-04-27T00:44:30.276Z,3.55
2023-04-27T00:47:04.634Z,1.77
2023-04-27T00:49:39.218Z,1.88
2023-04-27T00:52:13.362Z,3.90
2023-04-27T00:54:49.120Z,3.10
2023-04-27T00:57:24.494Z,2.17
2023-04-27T00:59:59.044Z,1.90
2023-04-27T01:02:54.750Z,6.97
2023-04-27T01:05:48.974Z,1.30
2023-04-27T01:08:43.100Z,3.08
2023-04-27T01:11:38.227Z,3.50
2023-04-27T01:14:32.561Z,3.97
2023-04-27T01:17:27.091Z,2.83
2023-04-27T01:20:21.508Z,1.02
2023-04-27T01:23:17.456Z,3.42
2023-04-27T01:26:14.751Z,3.75
2023-04-27T01:29:08.920Z,4.05
2023-04-27T01:32:03.063Z,0.65
2023-04-27T01:34:58.791Z,3.03
2023-04-27T01:37:53.466Z,2.20
2023-04-27T01:40:47.605Z,4.70
2023-04-27T01:43:43.289Z,2.47
2023-04-27T01:46:37.549Z,2.78
2023-04-27T01:49:31.652Z,0.60
2023-04-27T01:52:25.822Z,3.03
2023-04-27T01:55:20.089Z,2.92
2023-04-27T01:58:14.248Z,2.40
2023-04-27T02:01:08.546Z,2.05
2023-04-27T02:04:02.949Z,1.60
2023-04-27T02:06:57.390Z,2.33
2023-04-27T02:09:51.569Z,2.95
2023-04-27T02:12:45.724Z,1.00
2023-04-27T02:15:40.079Z,0.85
2023-04-27T02:18:35.015Z,1.20
2023-04-27T02:21:29.720Z,0.55
2023-04-27T02:24:23.840Z,0.43
2023-04-27T02:27:17.985Z,1.38
2023-04-27T02:30:13.684Z,0.90
2023-04-27T02:33:08.463Z,1.75
2023-04-27T02:36:02.562Z,3.40
2023-04-27T02:38:56.760Z,2.92
2023-04-27T02:41:50.865Z,0.52
2023-04-27T02:44:45.261Z,3.75
2023-04-27T02:47:39.448Z,1.27
2023-04-27T02:50:33.633Z,2.05
2023-04-27T02:53:28.011Z,1.88
2023-04-27T02:56:22.201Z,2.67
2023-04-27T02:59:16.515Z,1.40
2023-04-27T03:02:10.840Z,2.80
2023-04-27T03:05:05.713Z,3.95
2023-04-27T03:07:59.831Z,1.77
2023-04-27T03:10:53.949Z,2.25
2023-04-27T03:13:48.489Z,2.78
2023-04-27T03:16:42.682Z,3.00
2023-04-27T03:19:36.852Z,2.53
2023-04-27T03:22:30.948Z,1.33
2023-04-27T03:25:25.274Z,1.63
2023-04-27T03:28:19.389Z,1.27
2023-04-27T03:31:16.015Z,1.55
2023-04-27T03:34:10.164Z,2.97
2023-04-27T03:37:04.400Z,1.48
2023-04-27T03:39:58.586Z,1.20
2023-04-27T03:42:52.794Z,2.00
2023-04-27T03:45:47.070Z,5.60
2023-04-27T03:48:41.413Z,3.45
2023-04-27T03:51:35.763Z,1.83
2023-04-27T03:54:29.925Z,1.42
2023-04-27T03:57:24.035Z,3.03
2023-04-27T04:00:18.356Z,3.45
2023-04-27T04:03:12.835Z,1.65
2023-04-27T04:06:07.367Z,2.80
2023-04-27T04:09:01.577Z,2.65
2023-04-27T04:11:55.712Z,1.80
2023-04-27T04:14:50.247Z,2.85
2023-04-27T04:17:44.781Z,4.13
2023-04-27T04:20:38.951Z,4.10
2023-04-27T04:23:34.056Z,2.28
2023-04-27T04:26:28.686Z,3.72
2023-04-27T04:29:23.093Z,2.88
2023-04-27T04:32:19.720Z,3.20
2023-04-27T04:35:14.057Z,3.33
2023-04-27T04:38:08.186Z,2.05
2023-04-27T04:41:02.349Z,2.08
2023-04-27T04:43:56.789Z,2.75
2023-04-27T04:46:51.397Z,2.38
2023-04-27T04:49:45.545Z,1.73
2023-04-27T04:52:39.875Z,3.47
2023-04-27T04:55:34.064Z,2.45
2023-04-27T04:58:28.208Z,2.60
2023-04-27T05:01:22.419Z,1.13
2023-04-27T05:04:16.739Z,3.58
2023-04-27T05:07:14.712Z,4.90
2023-04-27T05:10:09.915Z,3.63
2023-04-27T05:13:06.510Z,1.90
2023-04-27T05:18:55.972Z,3.33
2023-04-27T05:21:50.105Z,4.10
2023-04-27T05:24:44.546Z,4.70
2023-04-27T05:27:38.676Z,3.25
2023-04-27T05:30:32.856Z,1.77
2023-04-27T05:33:27.096Z,5.22
2023-04-27T05:36:21.291Z,4.60
2023-04-27T05:39:15.983Z,2.47
2023-04-27T05:42:10.377Z,4.28
2023-04-27T05:45:05.340Z,6.07
2023-04-27T05:47:59.495Z,2.50
2023-04-27T05:51:02.684Z,7.07
2023-04-27T05:53:57.066Z,3.42
2023-04-27T05:56:52.304Z,4.75
2023-04-27T05:59:46.364Z,7.35
2023-04-27T06:02:40.692Z,4.43
2023-04-27T06:05:35.710Z,5.70
2023-04-27T06:08:30.964Z,3.00
2023-04-27T06:11:25.092Z,4.03
2023-04-27T06:14:19.502Z,7.15
2023-04-27T06:17:13.660Z,6.38
2023-04-27T06:20:09.635Z,4.70
2023-04-27T06:23:03.966Z,5.28
2023-04-27T06:25:58.597Z,4.15
2023-04-27T06:28:52.883Z,4.93
2023-04-27T06:31:47.462Z,4.72
2023-04-27T06:34:41.701Z,6.45
2023-04-27T06:37:35.854Z,5.75
2023-04-27T06:40:30.056Z,7.55
2023-04-27T06:43:24.409Z,7.32
2023-04-27T06:46:18.736Z,8.43
2023-04-27T06:49:13.088Z,4.28
2023-04-27T06:52:07.506Z,5.75
2023-04-27T06:55:02.116Z,5.47
2023-04-27T06:57:56.230Z,3.63
2023-04-27T07:00:50.560Z,5.70
2023-04-27T07:03:44.844Z,6.97
2023-04-27T07:06:39.093Z,3.97
2023-04-27T07:09:33.562Z,3.58
2023-04-27T07:12:28.225Z,4.40
2023-04-27T07:15:24.056Z,3.55
2023-04-27T07:18:18.220Z,5.93
2023-04-27T07:21:12.596Z,4.55
2023-04-27T07:24:07.178Z,3.38
2023-04-27T07:27:03.869Z,6.18
2023-04-27T07:29:58.033Z,6.85
2023-04-27T07:32:55.656Z,3.25
2023-04-27T07:35:51.620Z,3.58
2023-04-27T07:38:46.984Z,4.00
2023-04-27T07:41:41.194Z,5.57
2023-04-27T07:44:35.494Z,4.43
2023-04-27T07:47:29.746Z,2.58
2023-04-27T07:50:26.014Z,4.57
2023-04-27T07:53:20.247Z,2.35
2023-04-27T07:56:14.439Z,5.03
2023-04-27T07:59:09.040Z,4.22
2023-04-27T08:05:00.424Z,3.50
2023-04-27T08:07:54.950Z,5.63
2023-04-27T08:10:49.143Z,3.42
2023-04-27T08:13:43.347Z,6.18
2023-04-27T08:16:37.950Z,4.43
2023-04-27T08:19:32.555Z,6.25
2023-04-27T08:22:26.814Z,6.53
2023-04-27T08:25:21.133Z,5.75
2023-04-27T08:28:16.745Z,4.68
2023-04-27T08:31:10.904Z,5.63
2023-04-27T08:34:05.149Z,3.08
2023-04-27T08:36:59.360Z,2.30
2023-04-27T08:39:54.276Z,2.70
2023-04-27T08:43:02.452Z,4.53
2023-04-27T08:45:57.741Z,4.47
2023-04-27T08:48:53.380Z,2.95
2023-04-27T08:51:47.785Z,5.60
2023-04-27T08:54:42.132Z,4.82
2023-04-27T08:57:36.277Z,6.65
2023-04-27T09:00:42.837Z,9.45
2023-04-27T09:03:39.913Z,4.30
2023-04-27T09:09:29.340Z,5.72
2023-04-27T09:12:24.184Z,5.35
2023-04-27T09:15:18.508Z,6.57
2023-04-27T09:18:19.653Z,4.15
2023-04-27T09:21:32.361Z,5.28
2023-04-27T09:24:26.586Z,2.92
2023-04-27T09:27:24.688Z,6.47
2023-04-27T09:30:19.942Z,3.78
2023-04-27T09:33:15.332Z,4.65
2023-04-27T09:36:09.663Z,3.65
2023-04-27T09:39:07.203Z,6.93
2023-04-27T09:42:02.165Z,5.30
2023-04-27T09:44:56.924Z,4.03
2023-04-27T09:47:51.113Z,3.35
2023-04-27T09:50:47.395Z,8.43
2023-04-27T09:53:51.230Z,6.70
2023-04-27T09:57:03.702Z,5.85
2023-04-27T10:00:17.417Z,6.07
2023-04-27T10:03:45.084Z,5.75
2023-04-27T10:06:57.894Z,5.63
2023-04-27T10:09:53.148Z,5.57
2023-04-27T10:13:03.855Z,8.50
2023-04-27T10:15:58.087Z,4.95
2023-04-27T10:18:58.834Z,9.25
2023-04-27T10:22:06.612Z,7.55
2023-04-27T10:28:03.792Z,2.90
2023-04-27T10:30:58.112Z,9.18
2023-04-27T10:33:52.479Z,3.83
2023-04-27T10:36:46.812Z,4.15
2023-04-27T10:39:47.821Z,3.83
2023-04-27T10:42:47.436Z,3.88
2023-04-27T10:45:42.782Z,8.25
2023-04-27T10:48:36.933Z,5.85
2023-04-27T10:51:31.106Z,3.97
2023-04-27T10:54:30.893Z,5.05
2023-04-27T10:57:25.247Z,5.68
2023-04-27T11:00:31.034Z,7.28
2023-04-27T11:03:26.572Z,7.78
2023-04-27T11:06:21.325Z,5.88
2023-04-27T11:09:16.420Z,5.20
2023-04-27T11:12:14.334Z,5.20
2023-04-27T11:15:09.246Z,5.68
2023-04-27T11:18:09.718Z,5.20
2023-04-27T11:21:13.131Z,9.98
2023-04-27T11:24:13.233Z,3.63
2023-04-27T11:27:08.846Z,7.30
2023-04-27T11:30:02.990Z,5.40
2023-04-27T11:32:57.501Z,7.18
2023-04-27T11:35:51.734Z,8.55
2023-04-27T11:38:46.130Z,4.65
2023-04-27T11:41:41.212Z,4.65
2023-04-27T11:44:35.971Z,5.45
2023-04-27T11:47:32.249Z,3.17
2023-04-27T11:50:27.906Z,3.97
2023-04-27T11:53:38.521Z,3.00
2023-04-27T11:56:43.365Z,7.82
2023-04-27T11:59:37.595Z,4.30
2023-04-27T12:02:32.583Z,4.95
2023-04-27T12:05:28.544Z,6.07
2023-04-27T12:08:23.778Z,6.68
2023-04-27T12:11:18.020Z,5.43
2023-04-27T12:14:12.771Z,4.35
2023-04-27T12:17:08.402Z,7.15
2023-04-27T12:20:03.142Z,4.97
2023-04-27T12:22:58.452Z,4.93
2023-04-27T12:25:52.639Z,8.98
2023-04-27T12:28:46.801Z,6.72
2023-04-27T12:31:41.206Z,4.60
2023-04-27T12:34:36.933Z,6.47
2023-04-27T12:37:31.082Z,5.28
2023-04-27T12:40:25.262Z,5.53
2023-04-27T12:43:19.771Z,4.55
2023-04-27T12:46:14.036Z,5.25
2023-04-27T12:49:09.139Z,2.65
2023-04-27T12:52:03.558Z,4.88
2023-04-27T12:55:00.410Z,3.28
2023-04-27T12:57:54.704Z,3.10
2023-04-27T13:00:48.913Z,4.50
2023-04-27T13:03:44.196Z,6.18
2023-04-27T13:06:38.571Z,6.38
2023-04-27T13:09:32.690Z,6.80
2023-04-27T13:12:27.357Z,6.07
2023-04-27T13:15:22.054Z,4.53
2023-04-27T13:18:16.310Z,7.28
2023-04-27T13:21:10.784Z,4.85
2023-04-27T13:24:05.060Z,6.70
2023-04-27T13:26:59.161Z,6.53
2023-04-27T13:29:53.590Z,5.50
2023-04-27T13:32:47.802Z,5.10
2023-04-27T13:35:42.236Z,5.15
2023-04-27T13:38:36.428Z,3.85
2023-04-27T13:41:30.617Z,5.65
2023-04-27T13:44:24.806Z,7.63
2023-04-27T13:47:19.074Z,6.20
2023-04-27T13:50:14.196Z,4.70
2023-04-27T13:53:08.477Z,4.95
2023-04-27T13:56:02.632Z,5.20
2023-04-27T13:58:57.011Z,5.63
2023-04-27T14:01:51.186Z,6.88
2023-04-27T14:04:45.464Z,5.50
2023-04-27T14:07:39.723Z,7.22
2023-04-27T14:10:33.881Z,6.88
2023-04-27T14:13:28.002Z,6.07
2023-04-27T14:16:22.297Z,11.85
2023-04-27T14:19:17.053Z,10.63
2023-04-27T14:22:11.685Z,7.20
2023-04-27T14:25:06.118Z,7.50
2023-04-27T14:28:02.031Z,7.60
2023-04-27T14:30:56.266Z,8.88
2023-04-27T14:33:50.615Z,6.70
2023-04-27T14:36:44.947Z,7.00
2023-04-27T14:39:39.575Z,8.15
2023-04-27T14:42:34.316Z,9.05
2023-04-27T14:45:33.842Z,4.72
2023-04-27T14:48:31.131Z,6.45
2023-04-27T14:51:25.265Z,7.57
2023-04-27T14:54:19.433Z,6.68
2023-04-27T14:57:13.609Z,9.45
2023-04-27T15:00:11.015Z,7.47
2023-04-27T15:03:05.495Z,5.20
2023-04-27T15:06:00.173Z,8.15
2023-04-27T15:08:54.681Z,8.50
2023-04-27T15:11:48.824Z,6.57
2023-04-27T15:14:42.983Z,4.18
2023-04-27T15:17:37.526Z,10.05
2023-04-27T15:20:31.871Z,7.25
2023-04-27T15:23:26.925Z,5.88
2023-04-27T15:26:21.055Z,8.10
2023-04-27T15:29:15.485Z,8.75
2023-04-27T15:32:09.952Z,6.13
2023-04-27T15:35:05.592Z,7.40
2023-04-27T15:37:59.808Z,5.63
2023-04-27T15:40:53.886Z,8.65
2023-04-27T15:43:48.725Z,6.32
2023-04-27T15:46:42.918Z,4.35
2023-04-27T15:49:45.832Z,6.53
2023-04-27T15:52:48.232Z,6.05
2023-04-27T15:55:42.536Z,7.45
2023-04-27T15:58:36.782Z,6.47
2023-04-27T16:01:31.096Z,7.70
2023-04-27T16:04:25.346Z,5.18
2023-04-27T16:07:19.580Z,10.63
2023-04-27T16:10:14.479Z,5.43
2023-04-27T16:13:08.587Z,5.38
2023-04-27T16:16:03.269Z,7.35
2023-04-27T16:18:58.915Z,6.65
2023-04-27T16:21:53.050Z,6.70
2023-04-27T16:24:47.285Z,9.32
2023-04-27T16:27:41.825Z,9.50
2023-04-27T16:30:36.113Z,7.03
2023-04-27T16:33:30.243Z,3.95
2023-04-27T16:36:24.474Z,7.70
2023-04-27T16:39:20.453Z,6.85
2023-04-27T16:42:19.819Z,14.07
2023-04-27T16:45:14.080Z,10.13
2023-04-27T16:48:08.904Z,7.55
2023-04-27T16:51:03.261Z,10.82
2023-04-27T16:53:57.945Z,6.03
2023-04-27T16:56:53.844Z,5.63
2023-04-27T16:59:49.249Z,7.43
2023-04-27T17:02:43.958Z,9.82
2023-04-27T17:05:38.516Z,7.47
2023-04-27T17:08:32.862Z,7.70
2023-04-27T17:11:27.640Z,4.20
2023-04-27T17:14:23.594Z,9.85
2023-04-27T17:17:18.498Z,11.73
2023-04-27T17:20:13.967Z,6.18
2023-04-27T17:23:08.236Z,10.63
2023-04-27T17:26:02.730Z,8.20
2023-04-27T17:29:01.149Z,12.07
2023-04-27T17:31:55.386Z,5.05
2023-04-27T17:34:49.757Z,6.75
2023-04-27T17:37:43.849Z,7.78
2023-04-27T17:40:38.068Z,12.35
2023-04-27T17:43:32.340Z,8.57
2023-04-27T17:46:26.952Z,10.45
2023-04-27T17:49:21.561Z,12.55
2023-04-27T17:52:15.772Z,10.05
2023-04-27T17:55:10.030Z,6.63
2023-04-27T17:58:07.631Z,11.18
2023-04-27T18:01:02.254Z,8.23
2023-04-27T18:03:56.937Z,6.72
2023-04-27T18:06:51.181Z,9.20
2023-04-27T18:09:45.343Z,6.18
2023-04-27T18:12:39.445Z,6.35
2023-04-27T18:15:33.570Z,9.18
2023-04-27T18:18:28.067Z,4.45
2023-04-27T18:21:22.307Z,8.50
2023-04-27T18:24:16.448Z,7.95
2023-04-27T18:27:11.013Z,8.02
2023-04-27T18:30:07.472Z,8.70
2023-04-27T18:33:01.622Z,6.30
2023-04-27T18:35:55.800Z,8.60
2023-04-27T18:38:49.931Z,10.85
2023-04-27T18:41:44.621Z,8.65
2023-04-27T18:44:39.290Z,11.27
2023-04-27T18:47:33.492Z,9.55
2023-04-27T18:50:28.086Z,9.00
2023-04-27T18:53:22.715Z,9.23
2023-04-27T18:56:16.943Z,9.05
2023-04-27T18:59:11.180Z,8.88
2023-04-27T19:02:05.696Z,6.63
2023-04-27T19:05:11.254Z,11.77
2023-04-27T19:08:07.088Z,11.95
2023-04-27T19:11:01.297Z,11.27
2023-04-27T19:13:55.476Z,6.95
2023-04-27T19:16:49.631Z,8.45
2023-04-27T19:19:43.909Z,7.97
2023-04-27T19:22:38.360Z,7.47
2023-04-27T19:25:32.595Z,6.75
2023-04-27T19:28:26.853Z,6.68
2023-04-27T19:31:21.112Z,6.13
2023-04-27T19:34:15.322Z,11.65
2023-04-27T19:37:09.495Z,11.15
2023-04-27T19:40:03.646Z,8.63
2023-04-27T19:42:57.889Z,11.95
2023-04-27T19:45:52.433Z,10.38
2023-04-27T19:48:46.825Z,11.52
2023-04-27T19:51:43.624Z,8.55
2023-04-27T19:54:39.345Z,5.78
2023-04-27T19:57:33.555Z,9.23
2023-04-27T20:00:27.888Z,9.13
2023-04-27T20:03:22.898Z,8.25
2023-04-27T20:06:18.185Z,9.63
2023-04-27T20:09:12.422Z,9.15
2023-04-27T20:12:07.370Z,10.63
2023-04-27T20:15:02.419Z,15.55
2023-04-27T20:17:56.704Z,12.05
2023-04-27T20:20:52.350Z,12.27
2023-04-27T20:23:49.025Z,7.00
2023-04-27T20:26:43.153Z,4.53
2023-04-27T20:29:37.665Z,4.82
2023-04-27T20:32:31.806Z,3.45
2023-04-27T20:35:30.157Z,2.40
2023-04-27T20:38:26.655Z,2.80
2023-04-27T20:41:23.383Z,3.67
2023-04-27T20:44:21.100Z,6.90
2023-04-27T20:47:18.345Z,7.45
2023-04-27T20:50:14.381Z,5.47
2023-04-27T20:53:09.120Z,4.00
2023-04-27T20:56:04.059Z,4.30
2023-04-27T20:58:59.133Z,3.58
2023-04-27T21:01:53.778Z,3.28
2023-04-27T21:04:48.771Z,4.90
2023-04-27T21:07:44.359Z,5.20
2023-04-27T21:10:40.928Z,6.75
2023-04-27T21:13:37.373Z,8.88
2023-04-27T21:16:32.722Z,8.43
2023-04-27T21:19:27.659Z,10.50
2023-04-27T21:22:22.408Z,6.10
2023-04-27T21:25:17.191Z,10.13
2023-04-27T21:28:12.114Z,14.88
2023-04-27T21:31:09.228Z,11.70
2023-04-27T21:34:09.323Z,10.30
2023-04-27T21:37:06.252Z,9.18
2023-04-27T21:40:02.703Z,11.02
2023-04-27T21:43:02.680Z,9.47
2023-04-27T21:45:59.674Z,11.90
2023-04-27T21:48:54.425Z,6.32
2023-04-27T21:51:49.371Z,11.68
2023-04-27T21:54:44.008Z,12.68
2023-04-27T21:57:38.763Z,10.43
2023-04-27T22:00:33.359Z,12.95
2023-04-27T22:03:29.026Z,7.07
2023-04-27T22:06:24.385Z,12.83
2023-04-27T22:09:19.042Z,10.10
2023-04-27T22:12:13.646Z,10.93
2023-04-27T22:15:08.603Z,15.63
2023-04-27T22:18:07.983Z,12.13
2023-04-27T22:21:02.493Z,11.57
2023-04-27T22:23:58.774Z,10.95
2023-04-27T22:26:53.532Z,11.15
2023-04-27T22:29:47.774Z,12.02
2023-04-27T22:32:42.601Z,13.02
2023-04-27T22:35:38.653Z,13.63
2023-04-27T22:38:33.077Z,12.20
2023-04-27T22:41:27.630Z,10.18
2023-04-27T22:44:22.471Z,14.00
2023-04-27T22:47:16.789Z,9.18
2023-04-27T22:50:11.689Z,12.00
2023-04-27T22:53:09.146Z,8.65
2023-04-27T22:56:03.594Z,9.60
2023-04-27T22:58:58.078Z,11.13
2023-04-27T23:01:52.980Z,10.70
2023-04-27T23:04:47.290Z,12.13
2023-04-27T23:07:43.996Z,13.27
2023-04-27T23:10:39.973Z,12.27
2023-04-27T23:13:34.191Z,12.70
2023-04-27T23:16:28.557Z,14.50
2023-04-27T23:19:22.792Z,15.77
2023-04-27T23:22:17.513Z,14.27
2023-04-27T23:25:12.672Z,9.38
2023-04-27T23:28:06.966Z,8.20
2023-04-27T23:31:01.176Z,13.10
2023-04-27T23:33:55.385Z,9.95
2023-04-27T23:36:49.602Z,10.43
2023-04-27T23:39:43.737Z,10.57
2023-04-27T23:42:40.261Z,9.57
2023-04-27T23:45:34.468Z,10.70
2023-04-27T23:48:28.695Z,9.13
2023-04-27T23:51:22.869Z,8.07
2023-04-27T23:54:17.501Z,8.43
2023-04-27T23:57:11.975Z,6.63
